sensor_id;sensor_type;location;lat;lon;timestamp;P1;P2;P0
78316;PMS7003;67572;50.930;18.276;2023-06-10T00:00:54;33.67;30.67;24.00
78316;PMS7003;67572;50.930;18.276;2023-06-10T00:03:57;44.33;32.67;27.33
78316;PMS7003;67572;50.930;18.276;2023-06-10T00:07:02;38.33;32.67;27.33
78316;PMS7003;67572;50.930;18.276;2023-06-10T00:10:10;39.33;32.33;26.33
78316;PMS7003;67572;50.930;18.276;2023-06-10T00:13:15;45.33;36.67;26.33
78316;PMS7003;67572;50.930;18.276;2023-06-10T00:16:19;34.00;32.67;26.67
78316;PMS7003;67572;50.930;18.276;2023-06-10T00:19:22;34.67;32.67;27.33
78316;PMS7003;67572;50.930;18.276;2023-06-10T00:22:27;37.00;33.33;26.00
78316;PMS7003;67572;50.930;18.276;2023-06-10T00:25:31;34.67;29.00;23.67
78316;PMS7003;67572;50.930;18.276;2023-06-10T00:28:36;38.33;32.33;27.00
78316;PMS7003;67572;50.930;18.276;2023-06-10T00:31:39;34.67;30.67;29.00
78316;PMS7003;67572;50.930;18.276;2023-06-10T00:34:43;39.00;33.00;28.67
78316;PMS7003;67572;50.930;18.276;2023-06-10T00:37:47;49.00;37.33;28.67
78316;PMS7003;67572;50.930;18.276;2023-06-10T00:40:50;37.33;34.33;25.67
78316;PMS7003;67572;50.930;18.276;2023-06-10T00:43:56;36.33;33.00;28.33
78316;PMS7003;67572;50.930;18.276;2023-06-10T00:47:00;36.00;34.33;26.33
78316;PMS7003;67572;50.930;18.276;2023-06-10T00:50:04;40.33;39.67;31.00
78316;PMS7003;67572;50.930;18.276;2023-06-10T00:53:08;42.33;37.33;30.00
78316;PMS7003;67572;50.930;18.276;2023-06-10T00:56:13;40.00;36.00;29.00
78316;PMS7003;67572;50.930;18.276;2023-06-10T00:59:18;41.33;34.67;27.67
78316;PMS7003;67572;50.930;18.276;2023-06-10T01:02:22;35.33;34.00;29.00
78316;PMS7003;67572;50.930;18.276;2023-06-10T01:05:26;46.33;39.33;30.33
78316;PMS7003;67572;50.930;18.276;2023-06-10T01:08:32;48.00;41.33;31.33
78316;PMS7003;67572;50.930;18.276;2023-06-10T01:11:44;33.67;33.67;29.33
78316;PMS7003;67572;50.930;18.276;2023-06-10T01:14:53;40.00;35.00;29.67
78316;PMS7003;67572;50.930;18.276;2023-06-10T01:17:58;50.00;40.00;29.67
78316;PMS7003;67572;50.930;18.276;2023-06-10T01:21:07;46.33;41.67;30.67
78316;PMS7003;67572;50.930;18.276;2023-06-10T01:24:15;39.67;38.67;28.67
78316;PMS7003;67572;50.930;18.276;2023-06-10T01:27:20;53.33;43.33;31.00
78316;PMS7003;67572;50.930;18.276;2023-06-10T01:30:27;46.00;43.00;31.00
78316;PMS7003;67572;50.930;18.276;2023-06-10T01:33:36;40.67;37.00;29.67
78316;PMS7003;67572;50.930;18.276;2023-06-10T01:36:44;46.67;40.67;30.00
78316;PMS7003;67572;50.930;18.276;2023-06-10T01:39:51;43.00;38.67;30.00
78316;PMS7003;67572;50.930;18.276;2023-06-10T01:42:57;43.00;37.67;30.33
78316;PMS7003;67572;50.930;18.276;2023-06-10T01:46:01;45.00;41.33;32.00
78316;PMS7003;67572;50.930;18.276;2023-06-10T01:49:04;49.33;42.67;33.00
78316;PMS7003;67572;50.930;18.276;2023-06-10T01:52:08;48.33;44.33;32.33
78316;PMS7003;67572;50.930;18.276;2023-06-10T01:55:13;43.33;41.00;31.33
78316;PMS7003;67572;50.930;18.276;2023-06-10T01:58:17;54.67;44.00;31.67
78316;PMS7003;67572;50.930;18.276;2023-06-10T02:01:20;50.00;41.67;31.67
78316;PMS7003;67572;50.930;18.276;2023-06-10T02:04:24;54.00;47.00;34.00
78316;PMS7003;67572;50.930;18.276;2023-06-10T02:07:27;44.00;38.67;30.67
78316;PMS7003;67572;50.930;18.276;2023-06-10T02:10:32;41.33;35.00;29.00
78316;PMS7003;67572;50.930;18.276;2023-06-10T02:13:37;43.33;38.33;30.33
78316;PMS7003;67572;50.930;18.276;2023-06-10T02:16:41;36.33;36.33;29.00
78316;PMS7003;67572;50.930;18.276;2023-06-10T02:19:48;48.33;38.67;29.33
78316;PMS7003;67572;50.930;18.276;2023-06-10T02:22:55;50.67;42.67;30.67
78316;PMS7003;67572;50.930;18.276;2023-06-10T02:26:00;48.00;43.00;33.00
78316;PMS7003;67572;50.930;18.276;2023-06-10T02:29:05;47.67;43.00;33.00
78316;PMS7003;67572;50.930;18.276;2023-06-10T02:32:08;43.00;42.33;33.00
78316;PMS7003;67572;50.930;18.276;2023-06-10T02:35:15;49.67;44.00;34.00
78316;PMS7003;67572;50.930;18.276;2023-06-10T02:38:19;51.00;47.33;33.00
78316;PMS7003;67572;50.930;18.276;2023-06-10T02:41:24;59.00;50.00;37.00
78316;PMS7003;67572;50.930;18.276;2023-06-10T02:44:28;65.67;50.67;37.00
78316;PMS7003;67572;50.930;18.276;2023-06-10T02:47:32;60.00;49.00;34.33
78316;PMS7003;67572;50.930;18.276;2023-06-10T02:50:37;66.00;53.50;39.25
78316;PMS7003;67572;50.930;18.276;2023-06-10T02:54:08;61.33;49.00;34.00
78316;PMS7003;67572;50.930;18.276;2023-06-10T02:57:13;59.00;50.75;35.00
78316;PMS7003;67572;50.930;18.276;2023-06-10T03:00:17;57.50;46.75;35.00
78316;PMS7003;67572;50.930;18.276;2023-06-10T03:03:23;59.33;50.00;35.00
78316;PMS7003;67572;50.930;18.276;2023-06-10T03:06:35;56.00;45.67;33.00
78316;PMS7003;67572;50.930;18.276;2023-06-10T03:09:50;65.50;52.00;36.75
78316;PMS7003;67572;50.930;18.276;2023-06-10T03:12:55;49.33;44.33;33.00
78316;PMS7003;67572;50.930;18.276;2023-06-10T03:15:59;61.00;47.25;34.00
78316;PMS7003;67572;50.930;18.276;2023-06-10T03:19:07;61.33;51.00;36.67
78316;PMS7003;67572;50.930;18.276;2023-06-10T03:22:13;59.33;51.33;34.67
78316;PMS7003;67572;50.930;18.276;2023-06-10T03:25:32;55.00;46.67;32.33
78316;PMS7003;67572;50.930;18.276;2023-06-10T03:28:37;53.33;45.33;33.00
78316;PMS7003;67572;50.930;18.276;2023-06-10T03:31:42;56.00;44.33;30.00
78316;PMS7003;67572;50.930;18.276;2023-06-10T03:34:46;54.00;46.33;34.00
78316;PMS7003;67572;50.930;18.276;2023-06-10T03:37:50;63.75;51.50;36.25
78316;PMS7003;67572;50.930;18.276;2023-06-10T03:40:54;45.67;43.33;32.00
78316;PMS7003;67572;50.930;18.276;2023-06-10T03:43:59;54.33;47.33;37.00
78316;PMS7003;67572;50.930;18.276;2023-06-10T03:47:03;53.33;44.67;33.67
78316;PMS7003;67572;50.930;18.276;2023-06-10T03:50:08;55.00;46.00;32.00
78316;PMS7003;67572;50.930;18.276;2023-06-10T03:53:15;49.00;46.67;34.33
78316;PMS7003;67572;50.930;18.276;2023-06-10T03:56:19;59.33;50.67;35.67
78316;PMS7003;67572;50.930;18.276;2023-06-10T03:59:25;64.50;51.75;34.75
78316;PMS7003;67572;50.930;18.276;2023-06-10T04:02:28;57.00;46.33;36.00
78316;PMS7003;67572;50.930;18.276;2023-06-10T04:05:34;56.00;48.25;35.25
78316;PMS7003;67572;50.930;18.276;2023-06-10T04:08:38;59.00;50.00;34.67
78316;PMS7003;67572;50.930;18.276;2023-06-10T04:11:42;59.00;50.33;34.33
78316;PMS7003;67572;50.930;18.276;2023-06-10T04:14:47;63.33;50.00;34.33
78316;PMS7003;67572;50.930;18.276;2023-06-10T04:17:51;60.67;50.67;34.00
78316;PMS7003;67572;50.930;18.276;2023-06-10T04:20:57;59.50;51.25;35.50
78316;PMS7003;67572;50.930;18.276;2023-06-10T04:24:01;60.75;50.25;34.50
78316;PMS7003;67572;50.930;18.276;2023-06-10T04:27:06;64.00;49.00;37.00
78316;PMS7003;67572;50.930;18.276;2023-06-10T04:30:12;65.25;52.25;36.50
78316;PMS7003;67572;50.930;18.276;2023-06-10T04:33:17;62.33;49.67;36.67
78316;PMS7003;67572;50.930;18.276;2023-06-10T04:36:21;52.33;44.67;34.33
78316;PMS7003;67572;50.930;18.276;2023-06-10T04:39:25;58.67;48.00;36.00
78316;PMS7003;67572;50.930;18.276;2023-06-10T04:42:30;58.33;45.33;33.00
78316;PMS7003;67572;50.930;18.276;2023-06-10T04:45:36;59.00;49.67;34.67
78316;PMS7003;67572;50.930;18.276;2023-06-10T04:48:40;57.67;48.33;35.33
78316;PMS7003;67572;50.930;18.276;2023-06-10T04:51:44;57.00;49.00;34.00
78316;PMS7003;67572;50.930;18.276;2023-06-10T04:54:48;58.00;49.33;35.00
78316;PMS7003;67572;50.930;18.276;2023-06-10T04:57:51;53.33;46.00;35.33
78316;PMS7003;67572;50.930;18.276;2023-06-10T05:00:56;53.00;47.00;34.00
78316;PMS7003;67572;50.930;18.276;2023-06-10T05:04:00;52.33;46.33;34.00
78316;PMS7003;67572;50.930;18.276;2023-06-10T05:07:04;70.67;51.33;34.00
78316;PMS7003;67572;50.930;18.276;2023-06-10T05:10:08;59.00;50.00;34.67
78316;PMS7003;67572;50.930;18.276;2023-06-10T05:13:14;51.33;45.33;33.67
78316;PMS7003;67572;50.930;18.276;2023-06-10T05:16:19;53.67;45.33;33.33
78316;PMS7003;67572;50.930;18.276;2023-06-10T05:19:23;57.00;45.00;32.33
78316;PMS7003;67572;50.930;18.276;2023-06-10T05:22:27;58.33;49.00;33.67
78316;PMS7003;67572;50.930;18.276;2023-06-10T05:25:30;54.00;46.00;33.67
78316;PMS7003;67572;50.930;18.276;2023-06-10T05:28:34;49.33;43.00;32.67
78316;PMS7003;67572;50.930;18.276;2023-06-10T05:31:39;48.33;43.33;32.00
78316;PMS7003;67572;50.930;18.276;2023-06-10T05:34:43;42.33;34.67;28.33
78316;PMS7003;67572;50.930;18.276;2023-06-10T05:37:49;48.67;43.00;30.00
78316;PMS7003;67572;50.930;18.276;2023-06-10T05:40:52;46.33;39.67;30.00
78316;PMS7003;67572;50.930;18.276;2023-06-10T05:43:58;43.33;37.33;27.67
78316;PMS7003;67572;50.930;18.276;2023-06-10T05:47:03;35.33;33.33;27.00
78316;PMS7003;67572;50.930;18.276;2023-06-10T05:50:07;39.00;33.67;27.00
78316;PMS7003;67572;50.930;18.276;2023-06-10T05:53:12;35.33;26.33;25.33
78316;PMS7003;67572;50.930;18.276;2023-06-10T05:56:17;34.00;31.00;26.67
78316;PMS7003;67572;50.930;18.276;2023-06-10T05:59:20;30.33;29.33;26.00
78316;PMS7003;67572;50.930;18.276;2023-06-10T06:02:27;27.33;25.33;21.33
78316;PMS7003;67572;50.930;18.276;2023-06-10T06:05:31;31.00;26.67;22.33
78316;PMS7003;67572;50.930;18.276;2023-06-10T06:08:36;22.00;21.00;17.00
78316;PMS7003;67572;50.930;18.276;2023-06-10T06:11:40;20.00;18.33;16.00
78316;PMS7003;67572;50.930;18.276;2023-06-10T06:14:44;26.00;20.33;18.67
78316;PMS7003;67572;50.930;18.276;2023-06-10T06:17:49;24.67;20.00;19.00
78316;PMS7003;67572;50.930;18.276;2023-06-10T06:20:54;27.33;22.67;20.00
78316;PMS7003;67572;50.930;18.276;2023-06-10T06:23:58;28.00;22.33;20.00
78316;PMS7003;67572;50.930;18.276;2023-06-10T06:27:02;24.33;17.67;16.33
78316;PMS7003;67572;50.930;18.276;2023-06-10T06:30:07;26.00;20.33;18.00
78316;PMS7003;67572;50.930;18.276;2023-06-10T06:33:12;23.00;20.00;19.00
78316;PMS7003;67572;50.930;18.276;2023-06-10T06:36:16;25.00;19.33;17.00
78316;PMS7003;67572;50.930;18.276;2023-06-10T06:39:19;23.00;21.33;17.67
78316;PMS7003;67572;50.930;18.276;2023-06-10T06:42:23;21.67;19.33;16.33
78316;PMS7003;67572;50.930;18.276;2023-06-10T06:45:43;27.67;26.33;21.67
78316;PMS7003;67572;50.930;18.276;2023-06-10T06:48:49;22.67;22.00;20.33
78316;PMS7003;67572;50.930;18.276;2023-06-10T06:51:53;24.33;24.33;21.00
78316;PMS7003;67572;50.930;18.276;2023-06-10T06:54:56;21.67;20.67;17.67
78316;PMS7003;67572;50.930;18.276;2023-06-10T06:58:00;24.67;19.67;17.00
78316;PMS7003;67572;50.930;18.276;2023-06-10T07:01:06;24.00;21.33;19.67
78316;PMS7003;67572;50.930;18.276;2023-06-10T07:04:14;24.00;21.33;18.33
78316;PMS7003;67572;50.930;18.276;2023-06-10T07:07:18;23.33;23.33;20.33
78316;PMS7003;67572;50.930;18.276;2023-06-10T07:10:22;17.67;16.00;14.00
78316;PMS7003;67572;50.930;18.276;2023-06-10T07:13:27;25.00;24.00;21.00
78316;PMS7003;67572;50.930;18.276;2023-06-10T07:16:30;27.67;25.00;23.67
78316;PMS7003;67572;50.930;18.276;2023-06-10T07:19:35;26.67;24.67;21.00
78316;PMS7003;67572;50.930;18.276;2023-06-10T07:22:39;27.33;25.33;23.33
78316;PMS7003;67572;50.930;18.276;2023-06-10T07:25:44;24.33;24.33;20.33
78316;PMS7003;67572;50.930;18.276;2023-06-10T07:28:47;22.33;21.00;20.00
78316;PMS7003;67572;50.930;18.276;2023-06-10T07:31:51;25.33;23.00;20.33
78316;PMS7003;67572;50.930;18.276;2023-06-10T07:34:56;31.67;25.00;19.00
78316;PMS7003;67572;50.930;18.276;2023-06-10T07:38:00;27.33;24.33;22.00
78316;PMS7003;67572;50.930;18.276;2023-06-10T07:41:04;23.67;23.00;19.33
78316;PMS7003;67572;50.930;18.276;2023-06-10T07:44:08;17.33;17.33;16.67
78316;PMS7003;67572;50.930;18.276;2023-06-10T07:47:11;22.00;20.00;17.00
78316;PMS7003;67572;50.930;18.276;2023-06-10T07:50:16;25.00;20.33;18.00
78316;PMS7003;67572;50.930;18.276;2023-06-10T07:53:20;19.33;17.67;15.33
78316;PMS7003;67572;50.930;18.276;2023-06-10T07:56:23;18.00;16.33;14.00
78316;PMS7003;67572;50.930;18.276;2023-06-10T07:59:28;20.67;17.67;16.00
78316;PMS7003;67572;50.930;18.276;2023-06-10T08:02:33;17.33;16.00;14.33
78316;PMS7003;67572;50.930;18.276;2023-06-10T08:05:40;20.00;20.00;17.00
78316;PMS7003;67572;50.930;18.276;2023-06-10T08:08:44;22.33;18.33;18.00
78316;PMS7003;67572;50.930;18.276;2023-06-10T08:11:48;21.00;21.00;17.00
78316;PMS7003;67572;50.930;18.276;2023-06-10T08:14:52;23.33;16.67;16.67
78316;PMS7003;67572;50.930;18.276;2023-06-10T08:18:00;18.00;17.00;14.33
78316;PMS7003;67572;50.930;18.276;2023-06-10T08:21:06;16.67;15.67;15.00
78316;PMS7003;67572;50.930;18.276;2023-06-10T08:24:10;13.33;12.33;10.67
78316;PMS7003;67572;50.930;18.276;2023-06-10T08:27:13;14.00;14.00;13.00
78316;PMS7003;67572;50.930;18.276;2023-06-10T08:30:18;19.00;15.00;14.00
78316;PMS7003;67572;50.930;18.276;2023-06-10T08:33:23;15.00;15.00;14.00
78316;PMS7003;67572;50.930;18.276;2023-06-10T08:36:28;14.50;13.25;11.50
78316;PMS7003;67572;50.930;18.276;2023-06-10T08:39:32;14.25;14.25;13.75
78316;PMS7003;67572;50.930;18.276;2023-06-10T08:42:38;15.50;14.25;13.25
78316;PMS7003;67572;50.930;18.276;2023-06-10T08:45:48;20.33;19.00;18.00
78316;PMS7003;67572;50.930;18.276;2023-06-10T08:48:52;16.50;13.75;13.00
78316;PMS7003;67572;50.930;18.276;2023-06-10T08:52:01;17.67;17.67;15.00
78316;PMS7003;67572;50.930;18.276;2023-06-10T08:55:12;5.00;1.00;1.00
78316;PMS7003;67572;50.930;18.276;2023-06-10T08:58:19;13.67;13.67;12.00
78316;PMS7003;67572;50.930;18.276;2023-06-10T09:01:23;15.25;13.50;12.50
78316;PMS7003;67572;50.930;18.276;2023-06-10T09:04:28;18.75;16.50;15.00
78316;PMS7003;67572;50.930;18.276;2023-06-10T09:07:34;16.00;15.00;13.50
78316;PMS7003;67572;50.930;18.276;2023-06-10T09:10:39;15.00;14.00;11.75
78316;PMS7003;67572;50.930;18.276;2023-06-10T09:13:43;19.00;15.50;14.50
78316;PMS7003;67572;50.930;18.276;2023-06-10T09:16:47;13.50;13.50;11.00
78316;PMS7003;67572;50.930;18.276;2023-06-10T09:19:52;17.00;15.00;13.50
78316;PMS7003;67572;50.930;18.276;2023-06-10T09:22:58;14.50;14.50;14.00
78316;PMS7003;67572;50.930;18.276;2023-06-10T09:26:07;16.00;16.00;15.25
78316;PMS7003;67572;50.930;18.276;2023-06-10T09:29:12;9.75;9.75;9.00
78316;PMS7003;67572;50.930;18.276;2023-06-10T09:32:16;16.25;16.00;13.25
78316;PMS7003;67572;50.930;18.276;2023-06-10T09:35:21;12.00;12.00;12.00
78316;PMS7003;67572;50.930;18.276;2023-06-10T09:38:29;15.00;15.00;13.75
78316;PMS7003;67572;50.930;18.276;2023-06-10T09:41:34;15.25;13.50;13.25
78316;PMS7003;67572;50.930;18.276;2023-06-10T09:44:38;12.50;12.00;12.00
78316;PMS7003;67572;50.930;18.276;2023-06-10T09:47:45;13.00;12.00;11.00
78316;PMS7003;67572;50.930;18.276;2023-06-10T09:50:49;14.25;13.00;12.25
78316;PMS7003;67572;50.930;18.276;2023-06-10T09:53:55;13.75;13.75;13.25
78316;PMS7003;67572;50.930;18.276;2023-06-10T09:56:58;16.00;14.50;13.50
78316;PMS7003;67572;50.930;18.276;2023-06-10T10:00:04;18.40;15.20;12.80
78316;PMS7003;67572;50.930;18.276;2023-06-10T10:03:14;12.40;11.80;10.20
78316;PMS7003;67572;50.930;18.276;2023-06-10T10:06:26;18.50;18.50;17.25
78316;PMS7003;67572;50.930;18.276;2023-06-10T10:09:33;16.25;14.75;14.00
78316;PMS7003;67572;50.930;18.276;2023-06-10T10:12:38;19.80;18.00;17.00
78316;PMS7003;67572;50.930;18.276;2023-06-10T10:15:42;20.50;17.50;16.75
78316;PMS7003;67572;50.930;18.276;2023-06-10T10:18:49;19.40;17.40;15.20
78316;PMS7003;67572;50.930;18.276;2023-06-10T10:21:59;21.00;19.80;17.40
78316;PMS7003;67572;50.930;18.276;2023-06-10T10:25:10;21.00;19.00;15.80
78316;PMS7003;67572;50.930;18.276;2023-06-10T10:28:16;22.00;19.40;16.80
78316;PMS7003;67572;50.930;18.276;2023-06-10T10:31:24;19.00;18.00;14.40
78316;PMS7003;67572;50.930;18.276;2023-06-10T10:34:35;17.00;16.60;14.60
78316;PMS7003;67572;50.930;18.276;2023-06-10T10:37:47;15.00;14.60;13.40
78316;PMS7003;67572;50.930;18.276;2023-06-10T10:40:53;18.80;16.80;15.40
78316;PMS7003;67572;50.930;18.276;2023-06-10T10:44:01;19.60;18.00;15.00
78316;PMS7003;67572;50.930;18.276;2023-06-10T10:47:08;18.00;15.60;14.20
78316;PMS7003;67572;50.930;18.276;2023-06-10T10:50:15;21.00;19.80;17.20
78316;PMS7003;67572;50.930;18.276;2023-06-10T10:53:21;19.00;17.20;15.80
78316;PMS7003;67572;50.930;18.276;2023-06-10T10:56:26;21.00;20.40;18.60
78316;PMS7003;67572;50.930;18.276;2023-06-10T10:59:42;21.80;20.80;17.80
78316;PMS7003;67572;50.930;18.276;2023-06-10T11:03:06;20.40;18.60;17.20
78316;PMS7003;67572;50.930;18.276;2023-06-10T11:06:12;18.60;14.20;13.80
78316;PMS7003;67572;50.930;18.276;2023-06-10T11:09:27;22.00;20.40;17.20
78316;PMS7003;67572;50.930;18.276;2023-06-10T11:12:43;25.00;24.40;20.60
78316;PMS7003;67572;50.930;18.276;2023-06-10T11:15:56;20.75;20.00;18.50
78316;PMS7003;67572;50.930;18.276;2023-06-10T11:19:01;21.00;21.00;20.00
78316;PMS7003;67572;50.930;18.276;2023-06-10T11:22:05;24.50;22.75;20.25
78316;PMS7003;67572;50.930;18.276;2023-06-10T11:25:13;23.00;22.00;19.00
78316;PMS7003;67572;50.930;18.276;2023-06-10T11:28:19;19.25;18.25;17.25
78316;PMS7003;67572;50.930;18.276;2023-06-10T11:31:24;20.75;18.00;16.50
78316;PMS7003;67572;50.930;18.276;2023-06-10T11:34:28;13.75;12.75;12.50
78316;PMS7003;67572;50.930;18.276;2023-06-10T11:37:32;18.20;18.00;15.20
78316;PMS7003;67572;50.930;18.276;2023-06-10T11:40:36;22.20;19.00;17.20
78316;PMS7003;67572;50.930;18.276;2023-06-10T11:43:42;18.75;17.50;16.75
78316;PMS7003;67572;50.930;18.276;2023-06-10T11:46:47;19.20;17.40;15.60
78316;PMS7003;67572;50.930;18.276;2023-06-10T11:49:55;21.20;16.80;14.40
78316;PMS7003;67572;50.930;18.276;2023-06-10T11:52:59;12.00;11.40;10.80
78316;PMS7003;67572;50.930;18.276;2023-06-10T11:56:03;17.00;15.80;14.20
78316;PMS7003;67572;50.930;18.276;2023-06-10T11:59:09;16.80;14.00;14.00
78316;PMS7003;67572;50.930;18.276;2023-06-10T12:02:14;21.00;19.60;16.60
78316;PMS7003;67572;50.930;18.276;2023-06-10T12:05:18;19.60;18.60;16.20
78316;PMS7003;67572;50.930;18.276;2023-06-10T12:08:22;21.80;19.60;17.60
78316;PMS7003;67572;50.930;18.276;2023-06-10T12:11:26;21.00;19.80;17.00
78316;PMS7003;67572;50.930;18.276;2023-06-10T12:17:58;18.20;18.00;16.60
78316;PMS7003;67572;50.930;18.276;2023-06-10T12:21:02;22.20;22.20;19.60
78316;PMS7003;67572;50.930;18.276;2023-06-10T12:24:08;19.40;17.40;17.40
78316;PMS7003;67572;50.930;18.276;2023-06-10T12:27:18;21.00;19.00;17.60
78316;PMS7003;67572;50.930;18.276;2023-06-10T12:30:27;19.80;17.60;16.40
78316;PMS7003;67572;50.930;18.276;2023-06-10T12:33:31;17.20;17.20;15.40
78316;PMS7003;67572;50.930;18.276;2023-06-10T12:36:35;11.20;9.80;9.00
78316;PMS7003;67572;50.930;18.276;2023-06-10T12:39:39;17.00;16.80;15.80
78316;PMS7003;67572;50.930;18.276;2023-06-10T12:42:44;15.80;15.80;14.20
78316;PMS7003;67572;50.930;18.276;2023-06-10T12:45:52;15.60;15.00;13.60
78316;PMS7003;67572;50.930;18.276;2023-06-10T12:48:56;15.40;15.40;15.00
78316;PMS7003;67572;50.930;18.276;2023-06-10T12:52:00;12.00;11.20;10.20
78316;PMS7003;67572;50.930;18.276;2023-06-10T12:55:04;8.20;8.20;7.80
78316;PMS7003;67572;50.930;18.276;2023-06-10T12:58:09;7.20;6.00;6.00
78316;PMS7003;67572;50.930;18.276;2023-06-10T13:01:14;6.20;6.20;6.00
78316;PMS7003;67572;50.930;18.276;2023-06-10T13:04:18;9.00;9.00;9.00
78316;PMS7003;67572;50.930;18.276;2023-06-10T13:07:23;10.20;8.80;8.20
78316;PMS7003;67572;50.930;18.276;2023-06-10T13:10:35;10.80;9.80;9.00
78316;PMS7003;67572;50.930;18.276;2023-06-10T13:13:39;10.40;9.80;9.00
78316;PMS7003;67572;50.930;18.276;2023-06-10T13:16:46;4.20;4.20;4.20
78316;PMS7003;67572;50.930;18.276;2023-06-10T13:19:50;7.80;7.20;6.40
78316;PMS7003;67572;50.930;18.276;2023-06-10T13:22:54;8.80;7.00;6.80
78316;PMS7003;67572;50.930;18.276;2023-06-10T13:25:58;6.20;6.20;6.00
78316;PMS7003;67572;50.930;18.276;2023-06-10T13:29:04;5.80;5.80;5.80
78316;PMS7003;67572;50.930;18.276;2023-06-10T13:32:14;3.80;3.80;3.80
78316;PMS7003;67572;50.930;18.276;2023-06-10T13:35:18;4.00;4.00;4.00
78316;PMS7003;67572;50.930;18.276;2023-06-10T13:38:21;5.00;5.00;5.00
78316;PMS7003;67572;50.930;18.276;2023-06-10T13:41:26;7.60;5.00;4.40
78316;PMS7003;67572;50.930;18.276;2023-06-10T13:44:30;6.00;5.60;5.60
78316;PMS7003;67572;50.930;18.276;2023-06-10T13:47:37;7.60;6.00;6.00
78316;PMS7003;67572;50.930;18.276;2023-06-10T13:50:41;7.20;7.20;6.60
78316;PMS7003;67572;50.930;18.276;2023-06-10T13:53:47;6.20;3.20;3.20
78316;PMS7003;67572;50.930;18.276;2023-06-10T13:56:52;5.40;5.20;4.80
78316;PMS7003;67572;50.930;18.276;2023-06-10T13:59:56;5.80;5.80;5.80
78316;PMS7003;67572;50.930;18.276;2023-06-10T14:03:01;5.40;5.40;5.40
78316;PMS7003;67572;50.930;18.276;2023-06-10T14:06:08;4.60;4.20;4.00
78316;PMS7003;67572;50.930;18.276;2023-06-10T14:09:14;7.00;4.80;4.00
78316;PMS7003;67572;50.930;18.276;2023-06-10T14:12:18;6.20;4.00;3.20
78316;PMS7003;67572;50.930;18.276;2023-06-10T14:15:22;3.00;3.00;3.00
78316;PMS7003;67572;50.930;18.276;2023-06-10T14:18:27;4.20;4.20;4.20
78316;PMS7003;67572;50.930;18.276;2023-06-10T14:21:30;4.20;3.00;2.80
78316;PMS7003;67572;50.930;18.276;2023-06-10T14:24:34;4.20;3.40;3.20
78316;PMS7003;67572;50.930;18.276;2023-06-10T14:27:38;8.00;4.60;4.00
78316;PMS7003;67572;50.930;18.276;2023-06-10T14:30:41;3.80;3.80;3.60
78316;PMS7003;67572;50.930;18.276;2023-06-10T14:33:47;4.60;4.60;4.40
78316;PMS7003;67572;50.930;18.276;2023-06-10T14:36:50;6.60;5.00;4.40
78316;PMS7003;67572;50.930;18.276;2023-06-10T14:39:54;5.80;3.00;3.00
78316;PMS7003;67572;50.930;18.276;2023-06-10T14:42:58;4.80;4.40;4.40
78316;PMS7003;67572;50.930;18.276;2023-06-10T14:46:03;2.80;2.80;2.80
78316;PMS7003;67572;50.930;18.276;2023-06-10T14:49:08;4.20;4.20;3.40
78316;PMS7003;67572;50.930;18.276;2023-06-10T14:52:14;4.60;3.80;3.80
78316;PMS7003;67572;50.930;18.276;2023-06-10T14:55:17;6.20;5.20;5.20
78316;PMS7003;67572;50.930;18.276;2023-06-10T14:58:22;3.00;3.00;3.00
78316;PMS7003;67572;50.930;18.276;2023-06-10T15:01:25;8.00;8.00;7.60
78316;PMS7003;67572;50.930;18.276;2023-06-10T15:04:30;8.00;5.00;5.00
78316;PMS7003;67572;50.930;18.276;2023-06-10T15:07:34;6.00;5.00;5.00
78316;PMS7003;67572;50.930;18.276;2023-06-10T15:10:37;6.00;6.00;5.20
78316;PMS7003;67572;50.930;18.276;2023-06-10T15:13:41;4.20;4.20;3.60
78316;PMS7003;67572;50.930;18.276;2023-06-10T15:16:45;7.00;4.80;4.00
78316;PMS7003;67572;50.930;18.276;2023-06-10T15:19:50;5.00;4.80;4.80
78316;PMS7003;67572;50.930;18.276;2023-06-10T15:22:54;6.60;6.60;6.60
78316;PMS7003;67572;50.930;18.276;2023-06-10T15:25:57;5.00;3.60;3.00
78316;PMS7003;67572;50.930;18.276;2023-06-10T15:29:01;4.60;3.60;3.60
78316;PMS7003;67572;50.930;18.276;2023-06-10T15:32:06;4.20;4.00;4.00
78316;PMS7003;67572;50.930;18.276;2023-06-10T15:35:20;4.00;4.00;4.00
78316;PMS7003;67572;50.930;18.276;2023-06-10T15:38:24;4.00;4.00;4.00
78316;PMS7003;67572;50.930;18.276;2023-06-10T15:41:27;3.40;3.00;3.00
78316;PMS7003;67572;50.930;18.276;2023-06-10T15:44:31;6.20;4.60;4.60
78316;PMS7003;67572;50.930;18.276;2023-06-10T15:47:35;5.80;5.80;5.80
78316;PMS7003;67572;50.930;18.276;2023-06-10T15:50:40;7.60;7.60;7.00
78316;PMS7003;67572;50.930;18.276;2023-06-10T15:53:43;4.00;4.00;4.00
78316;PMS7003;67572;50.930;18.276;2023-06-10T15:56:47;7.60;4.60;4.40
78316;PMS7003;67572;50.930;18.276;2023-06-10T15:59:51;5.00;4.00;4.00
78316;PMS7003;67572;50.930;18.276;2023-06-10T16:02:55;5.00;4.80;4.80
78316;PMS7003;67572;50.930;18.276;2023-06-10T16:06:00;4.20;4.20;4.20
78316;PMS7003;67572;50.930;18.276;2023-06-10T16:09:03;5.20;5.20;4.60
78316;PMS7003;67572;50.930;18.276;2023-06-10T16:12:08;5.80;4.00;4.00
78316;PMS7003;67572;50.930;18.276;2023-06-10T16:15:12;5.60;4.40;4.20
78316;PMS7003;67572;50.930;18.276;2023-06-10T16:18:17;4.20;3.60;3.40
78316;PMS7003;67572;50.930;18.276;2023-06-10T16:21:22;4.80;3.80;3.20
78316;PMS7003;67572;50.930;18.276;2023-06-10T16:24:27;2.20;2.20;2.20
78316;PMS7003;67572;50.930;18.276;2023-06-10T16:27:30;5.40;5.00;5.00
78316;PMS7003;67572;50.930;18.276;2023-06-10T16:30:34;7.80;5.80;4.80
78316;PMS7003;67572;50.930;18.276;2023-06-10T16:33:38;6.60;6.60;5.60
78316;PMS7003;67572;50.930;18.276;2023-06-10T16:36:45;7.60;6.80;5.20
78316;PMS7003;67572;50.930;18.276;2023-06-10T16:39:53;6.80;5.60;5.60
78316;PMS7003;67572;50.930;18.276;2023-06-10T16:42:57;4.00;4.00;4.00
78316;PMS7003;67572;50.930;18.276;2023-06-10T16:46:00;5.80;5.80;5.80
78316;PMS7003;67572;50.930;18.276;2023-06-10T16:49:03;4.00;4.00;4.00
78316;PMS7003;67572;50.930;18.276;2023-06-10T16:52:09;4.00;4.00;4.00
78316;PMS7003;67572;50.930;18.276;2023-06-10T16:55:12;5.40;4.00;4.00
78316;PMS7003;67572;50.930;18.276;2023-06-10T16:58:16;0.00;0.00;0.00
78316;PMS7003;67572;50.930;18.276;2023-06-10T17:01:20;6.00;5.20;5.20
78316;PMS7003;67572;50.930;18.276;2023-06-10T17:04:23;3.80;3.80;3.60
78316;PMS7003;67572;50.930;18.276;2023-06-10T17:07:28;5.20;3.40;3.40
78316;PMS7003;67572;50.930;18.276;2023-06-10T17:10:36;3.20;3.20;3.20
78316;PMS7003;67572;50.930;18.276;2023-06-10T17:13:39;6.00;6.00;6.00
78316;PMS7003;67572;50.930;18.276;2023-06-10T17:16:43;4.80;4.80;4.40
78316;PMS7003;67572;50.930;18.276;2023-06-10T17:19:47;6.40;6.00;6.00